PWSweather.com
Personal Weather Stations
Station Observations
ITROMSHA6
HarstadNO 9407

HarstadNO 9407

Lat: 68.7814767, Lon: 16.5297091

Elevation: 145

Station Type: Davis Vantage Pro2

High Low Average
Temperature 35.6°F2.0°C 31.0°F-0.6°C 33.6°F0.9°C
Dew Point 30.2°F-1.0°C 25.5°F-3.6°C 28.2°F-2.1°C
Winds 24.0 mph 38.6 kmh Calm Calm 5.0 mph WSW8.0 kmh WSW
Wind Gusts 32.0 mph51.5 kmh -- 3.0 mph4.8 kmh
Humidity 89% 70% 81%
Pressure 29.61 in1002.7 mb 29.29 in991.9 mb -
Precipitation 0.00 in0.0 mm - -
Hour Temp Dew Point Humidity Winds Wind Gusts Pressure Precip Precip Rate Daily Precip Total
12:00 AM 33.8°F1.0°C 28.0°F-2.2°C 79% 2.0 mph SW3.2 kmh SW -- 29.29 in991.9 mb 0.24 in6.1 mm 0.00 in0.0 mm 0.24 in6.1 mm
12:05 AM 34.0°F1.1°C 27.5°F-2.5°C 77% 17.0 mph SW27.4 kmh SW -- 29.29 in991.9 mb 0.24 in6.1 mm 0.00 in0.0 mm 0.24 in6.1 mm
12:10 AM 34.3°F1.3°C 27.3°F-2.6°C 75% 3.0 mph WSW4.8 kmh WSW -- 29.30 in992.2 mb 0.24 in6.1 mm 0.00 in0.0 mm 0.24 in6.1 mm
12:15 AM 34.6°F1.4°C 26.8°F-2.9°C 73% 4.0 mph WSW6.4 kmh WSW -- 29.30 in992.2 mb 0.24 in6.1 mm 0.00 in0.0 mm 0.24 in6.1 mm
12:20 AM 34.4°F1.3°C 27.3°F-2.6°C 75% 4.0 mph NE6.4 kmh NE 22.0 mph35.4 kmh 29.30 in992.2 mb 0.24 in6.1 mm 0.00 in0.0 mm 0.24 in6.1 mm
12:25 AM 34.2°F1.2°C 27.7°F-2.4°C 77% 10.0 mph NNW16.1 kmh NNW -- 29.31 in992.6 mb 0.00 in0.0 mm 0.00 in0.0 mm 0.24 in6.1 mm
12:30 AM 34.2°F1.2°C 28.4°F-2.0°C 79% 11.0 mph NW17.7 kmh NW -- 29.31 in992.6 mb 0.00 in0.0 mm 0.00 in0.0 mm 0.24 in6.1 mm
12:35 AM 33.9°F1.1°C 28.2°F-2.1°C 79% 4.0 mph S6.4 kmh S -- 29.32 in992.9 mb 0.00 in0.0 mm 0.00 in0.0 mm 0.24 in6.1 mm
12:40 AM 33.5°F0.8°C 27.7°F-2.4°C 79% 5.0 mph WSW8.0 kmh WSW -- 29.32 in992.9 mb 0.00 in0.0 mm 0.00 in0.0 mm 0.24 in6.1 mm
12:45 AM 33.4°F0.8°C 27.3°F-2.6°C 78% 4.0 mph WSW6.4 kmh WSW 19.0 mph30.6 kmh 29.31 in992.6 mb 0.00 in0.0 mm 0.00 in0.0 mm 0.24 in6.1 mm
12:50 AM 33.7°F0.9°C 27.1°F-2.7°C 77% 5.0 mph SE8.0 kmh SE -- 29.32 in992.9 mb 0.00 in0.0 mm 0.00 in0.0 mm 0.24 in6.1 mm
12:55 AM 34.0°F1.1°C 27.5°F-2.5°C 77% 17.0 mph NNE27.4 kmh NNE -- 29.32 in992.9 mb 0.00 in0.0 mm 0.00 in0.0 mm 0.24 in6.1 mm
01:00 AM 34.5°F1.4°C 27.1°F-2.7°C 74% 9.0 mph N14.5 kmh N -- 29.32 in992.9 mb 0.00 in0.0 mm 0.00 in0.0 mm 0.24 in6.1 mm
01:05 AM 34.6°F1.4°C 27.5°F-2.5°C 75% 3.0 mph W4.8 kmh W -- 29.31 in992.6 mb 0.00 in0.0 mm 0.00 in0.0 mm 0.24 in6.1 mm
01:10 AM 34.4°F1.3°C 27.3°F-2.6°C 75% 6.0 mph W9.7 kmh W 20.0 mph32.2 kmh 29.32 in992.9 mb 0.00 in0.0 mm 0.00 in0.0 mm 0.24 in6.1 mm
01:15 AM 34.2°F1.2°C 27.1°F-2.7°C 75% 9.0 mph NW14.5 kmh NW -- 29.32 in992.9 mb 0.00 in0.0 mm 0.00 in0.0 mm 0.24 in6.1 mm
01:20 AM 34.1°F1.2°C 27.3°F-2.6°C 76% 6.0 mph WSW9.7 kmh WSW -- 29.32 in992.9 mb 0.00 in0.0 mm 0.00 in0.0 mm 0.24 in6.1 mm
01:25 AM 34.0°F1.1°C 27.5°F-2.5°C 77% 10.0 mph SW16.1 kmh SW -- 29.32 in992.9 mb 0.00 in0.0 mm 0.00 in0.0 mm 0.24 in6.1 mm
01:30 AM 33.9°F1.1°C 27.5°F-2.5°C 77% 8.0 mph WSW12.9 kmh WSW -- 29.33 in993.2 mb 0.00 in0.0 mm 0.00 in0.0 mm 0.24 in6.1 mm
01:35 AM 34.1°F1.2°C 27.1°F-2.7°C 75% 8.0 mph WSW12.9 kmh WSW 18.0 mph29.0 kmh 29.32 in992.9 mb 0.00 in0.0 mm 0.00 in0.0 mm 0.24 in6.1 mm
01:40 AM 33.9°F1.1°C 27.1°F-2.7°C 76% 7.0 mph WSW11.3 kmh WSW -- 29.32 in992.9 mb 0.00 in0.0 mm 0.00 in0.0 mm 0.24 in6.1 mm
01:45 AM 34.0°F1.1°C 27.0°F-2.8°C 75% 4.0 mph SSW6.4 kmh SSW -- 29.33 in993.2 mb 0.00 in0.0 mm 0.00 in0.0 mm 0.24 in6.1 mm
01:50 AM 33.5°F0.8°C 27.7°F-2.4°C 79% 6.0 mph NW9.7 kmh NW -- 29.34 in993.6 mb 0.00 in0.0 mm 0.00 in0.0 mm 0.24 in6.1 mm
01:55 AM 32.8°F0.4°C 28.2°F-2.1°C 83% 3.0 mph NNE4.8 kmh NNE -- 29.34 in993.6 mb 0.00 in0.0 mm 0.00 in0.0 mm 0.24 in6.1 mm
02:00 AM 32.3°F0.2°C 28.0°F-2.2°C 84% 8.0 mph NW12.9 kmh NW 20.0 mph32.2 kmh 29.33 in993.2 mb 0.00 in0.0 mm 0.00 in0.0 mm 0.24 in6.1 mm
02:05 AM 32.3°F0.2°C 28.4°F-2.0°C 85% 2.0 mph S3.2 kmh S -- 29.33 in993.2 mb 0.00 in0.0 mm 0.00 in0.0 mm 0.24 in6.1 mm
02:10 AM 32.8°F0.4°C 27.9°F-2.3°C 82% 2.0 mph ESE3.2 kmh ESE -- 29.33 in993.2 mb 0.00 in0.0 mm 0.00 in0.0 mm 0.24 in6.1 mm
02:15 AM 34.0°F1.1°C 27.5°F-2.5°C 77% 6.0 mph N9.7 kmh N -- 29.33 in993.2 mb 0.00 in0.0 mm 0.00 in0.0 mm 0.24 in6.1 mm
02:20 AM 34.4°F1.3°C 27.0°F-2.8°C 74% 7.0 mph ESE11.3 kmh ESE -- 29.33 in993.2 mb 0.00 in0.0 mm 0.00 in0.0 mm 0.24 in6.1 mm
02:25 AM 34.6°F1.4°C 26.8°F-2.9°C 73% 7.0 mph NW11.3 kmh NW 22.0 mph35.4 kmh 29.34 in993.6 mb 0.00 in0.0 mm 0.00 in0.0 mm 0.24 in6.1 mm
02:30 AM 34.8°F1.6°C 26.8°F-2.9°C 72% 9.0 mph WNW14.5 kmh WNW -- 29.34 in993.6 mb 0.00 in0.0 mm 0.00 in0.0 mm 0.24 in6.1 mm
02:35 AM 34.5°F1.4°C 26.8°F-2.9°C 73% 13.0 mph NW20.9 kmh NW -- 29.34 in993.6 mb 0.00 in0.0 mm 0.00 in0.0 mm 0.24 in6.1 mm
02:40 AM 34.8°F1.6°C 26.8°F-2.9°C 72% 4.0 mph N6.4 kmh N -- 29.34 in993.6 mb 0.00 in0.0 mm 0.00 in0.0 mm 0.24 in6.1 mm
02:45 AM 34.7°F1.5°C 27.9°F-2.3°C 76% 14.0 mph W22.5 kmh W -- 29.35 in993.9 mb 0.00 in0.0 mm 0.00 in0.0 mm 0.24 in6.1 mm
02:50 AM 34.2°F1.2°C 27.7°F-2.4°C 77% 4.0 mph NW6.4 kmh NW 32.0 mph51.5 kmh 29.35 in993.9 mb 0.00 in0.0 mm 0.00 in0.0 mm 0.24 in6.1 mm
02:55 AM 33.8°F1.0°C 27.3°F-2.6°C 77% 2.0 mph WSW3.2 kmh WSW -- 29.35 in993.9 mb 0.00 in0.0 mm 0.00 in0.0 mm 0.24 in6.1 mm
03:00 AM 33.6°F0.9°C 27.1°F-2.7°C 77% 3.0 mph W4.8 kmh W -- 29.35 in993.9 mb 0.00 in0.0 mm 0.00 in0.0 mm 0.24 in6.1 mm
03:05 AM 33.2°F0.7°C 27.9°F-2.3°C 80% 1.0 mph SW1.6 kmh SW -- 29.35 in993.9 mb 0.00 in0.0 mm 0.00 in0.0 mm 0.24 in6.1 mm
03:10 AM 32.9°F0.5°C 28.4°F-2.0°C 83% 7.0 mph WNW11.3 kmh WNW -- 29.35 in993.9 mb 0.00 in0.0 mm 0.00 in0.0 mm 0.24 in6.1 mm
03:15 AM 33.0°F0.6°C 28.4°F-2.0°C 83% 5.0 mph SSE8.0 kmh SSE 11.0 mph17.7 kmh 29.35 in993.9 mb 0.00 in0.0 mm 0.00 in0.0 mm 0.24 in6.1 mm
03:20 AM 33.4°F0.8°C 28.6°F-1.9°C 82% 7.0 mph SW11.3 kmh SW -- 29.35 in993.9 mb 0.00 in0.0 mm 0.00 in0.0 mm 0.24 in6.1 mm
03:25 AM 33.5°F0.8°C 29.1°F-1.6°C 84% 3.0 mph W4.8 kmh W -- 29.36 in994.2 mb 0.00 in0.0 mm 0.00 in0.0 mm 0.24 in6.1 mm
03:30 AM 33.0°F0.6°C 28.8°F-1.8°C 84% 9.0 mph WNW14.5 kmh WNW -- 29.36 in994.2 mb 0.00 in0.0 mm 0.00 in0.0 mm 0.24 in6.1 mm
03:35 AM 32.8°F0.4°C 28.2°F-2.1°C 83% 6.0 mph WSW9.7 kmh WSW -- 29.36 in994.2 mb 0.00 in0.0 mm 0.00 in0.0 mm 0.24 in6.1 mm
03:40 AM 32.8°F0.4°C 28.2°F-2.1°C 83% 7.0 mph WSW11.3 kmh WSW 18.0 mph29.0 kmh 29.36 in994.2 mb 0.00 in0.0 mm 0.00 in0.0 mm 0.24 in6.1 mm
03:45 AM 32.8°F0.4°C 28.8°F-1.8°C 85% 9.0 mph NW14.5 kmh NW -- 29.37 in994.6 mb 0.00 in0.0 mm 0.00 in0.0 mm 0.24 in6.1 mm
03:50 AM 31.9°F-0.1°C 28.8°F-1.8°C 88% 11.0 mph WNW17.7 kmh WNW -- 29.37 in994.6 mb 0.00 in0.0 mm 0.00 in0.0 mm 0.24 in6.1 mm
03:55 AM 31.4°F-0.3°C 28.6°F-1.9°C 89% 8.0 mph W12.9 kmh W -- 29.36 in994.2 mb 0.00 in0.0 mm 0.00 in0.0 mm 0.24 in6.1 mm
04:00 AM 31.0°F-0.6°C 28.0°F-2.2°C 89% Calm Calm -- 29.35 in993.9 mb 0.00 in0.0 mm 0.00 in0.0 mm 0.24 in6.1 mm
04:05 AM 31.1°F-0.5°C 28.2°F-2.1°C 89% 10.0 mph WSW16.1 kmh WSW 15.0 mph24.1 kmh 29.35 in993.9 mb 0.00 in0.0 mm 0.00 in0.0 mm 0.24 in6.1 mm
04:10 AM 31.8°F-0.1°C 28.8°F-1.8°C 88% 4.0 mph S6.4 kmh S -- 29.35 in993.9 mb 0.00 in0.0 mm 0.00 in0.0 mm 0.24 in6.1 mm
04:15 AM 32.1°F0.1°C 28.8°F-1.8°C 87% 2.0 mph S3.2 kmh S -- 29.35 in993.9 mb 0.00 in0.0 mm 0.00 in0.0 mm 0.24 in6.1 mm
04:20 AM 32.4°F0.2°C 28.6°F-1.9°C 86% 6.0 mph ENE9.7 kmh ENE -- 29.35 in993.9 mb 0.00 in0.0 mm 0.00 in0.0 mm 0.24 in6.1 mm
04:25 AM 32.6°F0.3°C 28.6°F-1.9°C 85% 5.0 mph N8.0 kmh N -- 29.35 in993.9 mb 0.00 in0.0 mm 0.00 in0.0 mm 0.24 in6.1 mm
04:30 AM 32.9°F0.5°C 28.9°F-1.7°C 85% 3.0 mph ENE4.8 kmh ENE 10.0 mph16.1 kmh 29.36 in994.2 mb 0.00 in0.0 mm 0.00 in0.0 mm 0.24 in6.1 mm
04:35 AM 32.8°F0.4°C 28.8°F-1.8°C 85% 5.0 mph E8.0 kmh E -- 29.36 in994.2 mb 0.00 in0.0 mm 0.00 in0.0 mm 0.24 in6.1 mm
04:40 AM 32.0°F0.0°C 28.9°F-1.7°C 88% 10.0 mph SW16.1 kmh SW -- 29.37 in994.6 mb 0.00 in0.0 mm 0.00 in0.0 mm 0.24 in6.1 mm
04:45 AM 31.5°F-0.3°C 28.4°F-2.0°C 88% 5.0 mph S8.0 kmh S -- 29.36 in994.2 mb 0.00 in0.0 mm 0.00 in0.0 mm 0.24 in6.1 mm
04:50 AM 31.4°F-0.3°C 28.6°F-1.9°C 89% 2.0 mph W3.2 kmh W -- 29.36 in994.2 mb 0.00 in0.0 mm 0.00 in0.0 mm 0.24 in6.1 mm
04:55 AM 31.6°F-0.2°C 28.6°F-1.9°C 88% 2.0 mph W3.2 kmh W 13.0 mph20.9 kmh 29.36 in994.2 mb 0.00 in0.0 mm 0.00 in0.0 mm 0.24 in6.1 mm
05:00 AM 31.9°F-0.1°C 28.8°F-1.8°C 88% 4.0 mph SW6.4 kmh SW -- 29.36 in994.2 mb 0.00 in0.0 mm 0.00 in0.0 mm 0.24 in6.1 mm
05:05 AM 32.1°F0.1°C 28.8°F-1.8°C 87% 9.0 mph WNW14.5 kmh WNW -- 29.36 in994.2 mb 0.00 in0.0 mm 0.00 in0.0 mm 0.24 in6.1 mm
05:10 AM 32.2°F0.1°C 28.8°F-1.8°C 87% 5.0 mph SW8.0 kmh SW -- 29.36 in994.2 mb 0.00 in0.0 mm 0.00 in0.0 mm 0.24 in6.1 mm
05:15 AM 32.3°F0.2°C 28.9°F-1.7°C 87% 1.0 mph NW1.6 kmh NW -- 29.36 in994.2 mb 0.00 in0.0 mm 0.00 in0.0 mm 0.24 in6.1 mm
05:20 AM 32.5°F0.3°C 28.8°F-1.8°C 86% 3.0 mph E4.8 kmh E 11.0 mph17.7 kmh 29.36 in994.2 mb 0.00 in0.0 mm 0.00 in0.0 mm 0.24 in6.1 mm
05:25 AM 32.8°F0.4°C 28.8°F-1.8°C 85% 4.0 mph W6.4 kmh W -- 29.36 in994.2 mb 0.00 in0.0 mm 0.00 in0.0 mm 0.24 in6.1 mm
05:30 AM 33.3°F0.7°C 28.4°F-2.0°C 82% 6.0 mph NW9.7 kmh NW -- 29.36 in994.2 mb 0.00 in0.0 mm 0.00 in0.0 mm 0.24 in6.1 mm
05:35 AM 33.7°F0.9°C 27.9°F-2.3°C 79% 1.0 mph N1.6 kmh N -- 29.36 in994.2 mb 0.00 in0.0 mm 0.00 in0.0 mm 0.24 in6.1 mm
05:40 AM 33.8°F1.0°C 28.0°F-2.2°C 79% 1.0 mph SW1.6 kmh SW -- 29.37 in994.6 mb 0.00 in0.0 mm 0.00 in0.0 mm 0.24 in6.1 mm
05:45 AM 34.1°F1.2°C 27.7°F-2.4°C 77% 3.0 mph E4.8 kmh E 16.0 mph25.7 kmh 29.37 in994.6 mb 0.00 in0.0 mm 0.00 in0.0 mm 0.24 in6.1 mm
05:50 AM 34.2°F1.2°C 27.7°F-2.4°C 77% 4.0 mph S6.4 kmh S -- 29.37 in994.6 mb 0.00 in0.0 mm 0.00 in0.0 mm 0.24 in6.1 mm
05:55 AM 34.3°F1.3°C 27.3°F-2.6°C 75% 4.0 mph NW6.4 kmh NW -- 29.37 in994.6 mb 0.00 in0.0 mm 0.00 in0.0 mm 0.24 in6.1 mm
06:00 AM 34.3°F1.3°C 27.3°F-2.6°C 75% 8.0 mph NNW12.9 kmh NNW -- 29.37 in994.6 mb 0.00 in0.0 mm 0.00 in0.0 mm 0.24 in6.1 mm
06:05 AM 34.3°F1.3°C 27.9°F-2.3°C 77% 8.0 mph WNW12.9 kmh WNW -- 29.37 in994.6 mb 0.00 in0.0 mm 0.00 in0.0 mm 0.24 in6.1 mm
06:10 AM 34.0°F1.1°C 28.2°F-2.1°C 79% 5.0 mph ESE8.0 kmh ESE 24.0 mph38.6 kmh 29.37 in994.6 mb 0.00 in0.0 mm 0.00 in0.0 mm 0.24 in6.1 mm
06:15 AM 33.8°F1.0°C 28.2°F-2.1°C 80% 3.0 mph WSW4.8 kmh WSW -- 29.37 in994.6 mb 0.00 in0.0 mm 0.00 in0.0 mm 0.24 in6.1 mm
06:20 AM 33.7°F0.9°C 27.9°F-2.3°C 79% 2.0 mph NW3.2 kmh NW -- 29.38 in994.9 mb 0.00 in0.0 mm 0.00 in0.0 mm 0.24 in6.1 mm
06:25 AM 33.5°F0.8°C 27.9°F-2.3°C 80% 1.0 mph WSW1.6 kmh WSW -- 29.38 in994.9 mb 0.00 in0.0 mm 0.00 in0.0 mm 0.24 in6.1 mm
06:30 AM 33.2°F0.7°C 28.0°F-2.2°C 81% 4.0 mph WNW6.4 kmh WNW -- 29.38 in994.9 mb 0.00 in0.0 mm 0.00 in0.0 mm 0.24 in6.1 mm
06:35 AM 33.0°F0.6°C 28.4°F-2.0°C 83% 1.0 mph N1.6 kmh N 10.0 mph16.1 kmh 29.38 in994.9 mb 0.00 in0.0 mm 0.00 in0.0 mm 0.24 in6.1 mm
06:40 AM 32.9°F0.5°C 28.4°F-2.0°C 83% 4.0 mph WSW6.4 kmh WSW -- 29.38 in994.9 mb 0.00 in0.0 mm 0.00 in0.0 mm 0.24 in6.1 mm
06:45 AM 33.5°F0.8°C 28.2°F-2.1°C 81% 5.0 mph WSW8.0 kmh WSW -- 29.38 in994.9 mb 0.00 in0.0 mm 0.00 in0.0 mm 0.24 in6.1 mm
06:50 AM 33.8°F1.0°C 28.2°F-2.1°C 80% 4.0 mph NW6.4 kmh NW -- 29.39 in995.3 mb 0.00 in0.0 mm 0.00 in0.0 mm 0.24 in6.1 mm
06:55 AM 33.5°F0.8°C 28.6°F-1.9°C 82% 3.0 mph WSW4.8 kmh WSW -- 29.39 in995.3 mb 0.00 in0.0 mm 0.00 in0.0 mm 0.24 in6.1 mm
07:00 AM 33.2°F0.7°C 29.3°F-1.5°C 85% 2.0 mph WSW3.2 kmh WSW 12.0 mph19.3 kmh 29.39 in995.3 mb 0.00 in0.0 mm 0.00 in0.0 mm 0.24 in6.1 mm
07:05 AM 33.0°F0.6°C 29.3°F-1.5°C 86% 6.0 mph WNW9.7 kmh WNW -- 29.39 in995.3 mb 0.00 in0.0 mm 0.00 in0.0 mm 0.24 in6.1 mm
07:10 AM 33.2°F0.7°C 29.8°F-1.2°C 87% 3.0 mph WSW4.8 kmh WSW -- 29.38 in994.9 mb 0.00 in0.0 mm 0.00 in0.0 mm 0.24 in6.1 mm
07:15 AM 33.4°F0.8°C 29.7°F-1.3°C 86% 6.0 mph WSW9.7 kmh WSW -- 29.39 in995.3 mb 0.00 in0.0 mm 0.00 in0.0 mm 0.24 in6.1 mm
07:20 AM 34.0°F1.1°C 29.7°F-1.3°C 84% 7.0 mph ENE11.3 kmh ENE -- 29.40 in995.6 mb 0.00 in0.0 mm 0.00 in0.0 mm 0.24 in6.1 mm
07:25 AM 33.5°F0.8°C 29.5°F-1.4°C 85% 10.0 mph W16.1 kmh W 22.0 mph35.4 kmh 29.40 in995.6 mb 0.00 in0.0 mm 0.00 in0.0 mm 0.24 in6.1 mm
07:30 AM 32.9°F0.5°C 29.5°F-1.4°C 87% 1.0 mph WSW1.6 kmh WSW -- 29.40 in995.6 mb 0.00 in0.0 mm 0.00 in0.0 mm 0.24 in6.1 mm
07:35 AM 32.9°F0.5°C 29.7°F-1.3°C 88% 1.0 mph WNW1.6 kmh WNW -- 29.40 in995.6 mb 0.00 in0.0 mm 0.00 in0.0 mm 0.24 in6.1 mm
07:40 AM 33.0°F0.6°C 29.7°F-1.3°C 87% 4.0 mph S6.4 kmh S -- 29.39 in995.3 mb 0.00 in0.0 mm 0.00 in0.0 mm 0.24 in6.1 mm
07:45 AM 33.3°F0.7°C 29.5°F-1.4°C 86% 1.0 mph SW1.6 kmh SW -- 29.39 in995.3 mb 0.00 in0.0 mm 0.00 in0.0 mm 0.24 in6.1 mm
07:50 AM 33.4°F0.8°C 29.5°F-1.4°C 85% 5.0 mph W8.0 kmh W 17.0 mph27.4 kmh 29.40 in995.6 mb 0.00 in0.0 mm 0.00 in0.0 mm 0.24 in6.1 mm
07:55 AM 33.4°F0.8°C 29.5°F-1.4°C 85% 2.0 mph N3.2 kmh N -- 29.40 in995.6 mb 0.00 in0.0 mm 0.00 in0.0 mm 0.24 in6.1 mm
08:00 AM 33.5°F0.8°C 29.5°F-1.4°C 85% 5.0 mph SW8.0 kmh SW -- 29.40 in995.6 mb 0.00 in0.0 mm 0.00 in0.0 mm 0.24 in6.1 mm
08:05 AM 33.7°F0.9°C 29.3°F-1.5°C 84% 10.0 mph NW16.1 kmh NW -- 29.40 in995.6 mb 0.00 in0.0 mm 0.00 in0.0 mm 0.24 in6.1 mm
08:10 AM 33.9°F1.1°C 29.7°F-1.3°C 84% 11.0 mph N17.7 kmh N -- 29.41 in995.9 mb 0.00 in0.0 mm 0.00 in0.0 mm 0.24 in6.1 mm
08:15 AM 33.9°F1.1°C 29.7°F-1.3°C 84% 5.0 mph W8.0 kmh W 18.0 mph29.0 kmh 29.41 in995.9 mb 0.00 in0.0 mm 0.00 in0.0 mm 0.24 in6.1 mm
08:20 AM 33.9°F1.1°C 29.7°F-1.3°C 84% 4.0 mph NE6.4 kmh NE -- 29.41 in995.9 mb 0.00 in0.0 mm 0.00 in0.0 mm 0.24 in6.1 mm
08:25 AM 33.4°F0.8°C 30.0°F-1.1°C 87% 5.0 mph NNW8.0 kmh NNW -- 29.42 in996.3 mb 0.00 in0.0 mm 0.00 in0.0 mm 0.24 in6.1 mm
08:30 AM 32.8°F0.4°C 29.5°F-1.4°C 88% 7.0 mph W11.3 kmh W -- 29.42 in996.3 mb 0.00 in0.0 mm 0.00 in0.0 mm 0.24 in6.1 mm
08:35 AM 33.1°F0.6°C 29.8°F-1.2°C 88% 11.0 mph NW17.7 kmh NW -- 29.42 in996.3 mb 0.00 in0.0 mm 0.00 in0.0 mm 0.24 in6.1 mm
08:40 AM 33.6°F0.9°C 30.2°F-1.0°C 87% 7.0 mph S11.3 kmh S 21.0 mph33.8 kmh 29.42 in996.3 mb 0.00 in0.0 mm 0.00 in0.0 mm 0.24 in6.1 mm
08:45 AM 34.0°F1.1°C 30.2°F-1.0°C 86% 5.0 mph NW8.0 kmh NW -- 29.42 in996.3 mb 0.00 in0.0 mm 0.00 in0.0 mm 0.24 in6.1 mm
08:50 AM 34.6°F1.4°C 29.7°F-1.3°C 82% 10.0 mph ENE16.1 kmh ENE -- 29.42 in996.3 mb 0.00 in0.0 mm 0.00 in0.0 mm 0.24 in6.1 mm
08:55 AM 34.9°F1.6°C 29.1°F-1.6°C 79% 9.0 mph NW14.5 kmh NW -- 29.43 in996.6 mb 0.00 in0.0 mm 0.00 in0.0 mm 0.24 in6.1 mm
09:00 AM 35.1°F1.7°C 28.9°F-1.7°C 78% 2.0 mph NW3.2 kmh NW -- 29.42 in996.3 mb 0.00 in0.0 mm 0.00 in0.0 mm 0.24 in6.1 mm
09:05 AM 35.3°F1.8°C 29.1°F-1.6°C 78% 5.0 mph SE8.0 kmh SE 20.0 mph32.2 kmh 29.42 in996.3 mb 0.00 in0.0 mm 0.00 in0.0 mm 0.24 in6.1 mm
09:10 AM 35.2°F1.8°C 29.1°F-1.6°C 78% 6.0 mph N9.7 kmh N -- 29.43 in996.6 mb 0.00 in0.0 mm 0.00 in0.0 mm 0.24 in6.1 mm
09:15 AM 34.9°F1.6°C 28.8°F-1.8°C 78% 4.0 mph ENE6.4 kmh ENE -- 29.43 in996.6 mb 0.00 in0.0 mm 0.00 in0.0 mm 0.24 in6.1 mm
09:20 AM 33.9°F1.1°C 29.1°F-1.6°C 82% 3.0 mph N4.8 kmh N -- 29.44 in997.0 mb 0.00 in0.0 mm 0.00 in0.0 mm 0.24 in6.1 mm
09:25 AM 33.3°F0.7°C 29.3°F-1.5°C 85% 7.0 mph N11.3 kmh N -- 29.44 in997.0 mb 0.00 in0.0 mm 0.00 in0.0 mm 0.24 in6.1 mm
09:30 AM 33.3°F0.7°C 29.8°F-1.2°C 87% 9.0 mph W14.5 kmh W 22.0 mph35.4 kmh 29.44 in997.0 mb 0.00 in0.0 mm 0.00 in0.0 mm 0.24 in6.1 mm
09:35 AM 33.0°F0.6°C 29.7°F-1.3°C 87% 2.0 mph SW3.2 kmh SW -- 29.44 in997.0 mb 0.00 in0.0 mm 0.00 in0.0 mm 0.24 in6.1 mm
09:40 AM 33.3°F0.7°C 29.8°F-1.2°C 87% 4.0 mph NW6.4 kmh NW -- 29.45 in997.3 mb 0.00 in0.0 mm 0.00 in0.0 mm 0.24 in6.1 mm
09:45 AM 33.9°F1.1°C 30.0°F-1.1°C 85% 4.0 mph N6.4 kmh N -- 29.44 in997.0 mb 0.00 in0.0 mm 0.00 in0.0 mm 0.24 in6.1 mm
09:50 AM 34.2°F1.2°C 29.8°F-1.2°C 84% 4.0 mph NW6.4 kmh NW -- 29.44 in997.0 mb 0.00 in0.0 mm 0.00 in0.0 mm 0.24 in6.1 mm
09:55 AM 34.3°F1.3°C 29.5°F-1.4°C 82% 1.0 mph NE1.6 kmh NE 11.0 mph17.7 kmh 29.45 in997.3 mb 0.00 in0.0 mm 0.00 in0.0 mm 0.24 in6.1 mm
10:00 AM 34.3°F1.3°C 28.8°F-1.8°C 80% 4.0 mph SE6.4 kmh SE -- 29.44 in997.0 mb 0.00 in0.0 mm 0.00 in0.0 mm 0.24 in6.1 mm
10:05 AM 34.4°F1.3°C 28.8°F-1.8°C 80% 12.0 mph W19.3 kmh W -- 29.45 in997.3 mb 0.00 in0.0 mm 0.00 in0.0 mm 0.24 in6.1 mm
10:10 AM 34.5°F1.4°C 28.8°F-1.8°C 79% 3.0 mph NW4.8 kmh NW -- 29.45 in997.3 mb 0.00 in0.0 mm 0.00 in0.0 mm 0.24 in6.1 mm
10:15 AM 34.6°F1.4°C 29.3°F-1.5°C 81% 8.0 mph W12.9 kmh W -- 29.45 in997.3 mb 0.00 in0.0 mm 0.00 in0.0 mm 0.24 in6.1 mm
10:20 AM 33.6°F0.9°C 29.3°F-1.5°C 84% 7.0 mph ENE11.3 kmh ENE 15.0 mph24.1 kmh 29.45 in997.3 mb 0.00 in0.0 mm 0.00 in0.0 mm 0.24 in6.1 mm
10:25 AM 33.2°F0.7°C 29.5°F-1.4°C 86% 5.0 mph SE8.0 kmh SE -- 29.45 in997.3 mb 0.00 in0.0 mm 0.00 in0.0 mm 0.24 in6.1 mm
10:30 AM 33.5°F0.8°C 29.7°F-1.3°C 86% 5.0 mph WNW8.0 kmh WNW -- 29.45 in997.3 mb 0.00 in0.0 mm 0.00 in0.0 mm 0.24 in6.1 mm
10:35 AM 33.5°F0.8°C 29.7°F-1.3°C 86% 4.0 mph NW6.4 kmh NW -- 29.46 in997.6 mb 0.00 in0.0 mm 0.00 in0.0 mm 0.24 in6.1 mm
10:40 AM 33.3°F0.7°C 29.5°F-1.4°C 86% 8.0 mph W12.9 kmh W -- 29.46 in997.6 mb 0.00 in0.0 mm 0.00 in0.0 mm 0.24 in6.1 mm
10:45 AM 33.2°F0.7°C 29.8°F-1.2°C 87% 1.0 mph NW1.6 kmh NW 15.0 mph24.1 kmh 29.46 in997.6 mb 0.00 in0.0 mm 0.00 in0.0 mm 0.24 in6.1 mm
10:50 AM 32.9°F0.5°C 29.7°F-1.3°C 88% 1.0 mph NNW1.6 kmh NNW -- 29.46 in997.6 mb 0.00 in0.0 mm 0.00 in0.0 mm 0.24 in6.1 mm
10:55 AM 32.7°F0.4°C 29.5°F-1.4°C 88% 4.0 mph NW6.4 kmh NW -- 29.47 in998.0 mb 0.00 in0.0 mm 0.00 in0.0 mm 0.24 in6.1 mm
11:00 AM 32.5°F0.3°C 29.7°F-1.3°C 89% 1.0 mph E1.6 kmh E -- 29.47 in998.0 mb 0.00 in0.0 mm 0.00 in0.0 mm 0.24 in6.1 mm
11:05 AM 32.6°F0.3°C 29.7°F-1.3°C 89% 3.0 mph SSW4.8 kmh SSW -- 29.47 in998.0 mb 0.00 in0.0 mm 0.00 in0.0 mm 0.24 in6.1 mm
11:10 AM 32.6°F0.3°C 29.7°F-1.3°C 89% 3.0 mph SW4.8 kmh SW 13.0 mph20.9 kmh 29.46 in997.6 mb 0.00 in0.0 mm 0.00 in0.0 mm 0.24 in6.1 mm
11:15 AM 32.5°F0.3°C 29.7°F-1.3°C 89% 7.0 mph W11.3 kmh W -- 29.46 in997.6 mb 0.00 in0.0 mm 0.00 in0.0 mm 0.24 in6.1 mm
11:20 AM 32.7°F0.4°C 29.8°F-1.2°C 89% 10.0 mph W16.1 kmh W -- 29.46 in997.6 mb 0.00 in0.0 mm 0.00 in0.0 mm 0.24 in6.1 mm
11:25 AM 33.5°F0.8°C 29.7°F-1.3°C 86% 10.0 mph NW16.1 kmh NW -- 29.47 in998.0 mb 0.00 in0.0 mm 0.00 in0.0 mm 0.24 in6.1 mm
11:30 AM 33.9°F1.1°C 29.7°F-1.3°C 84% 5.0 mph W8.0 kmh W -- 29.47 in998.0 mb 0.00 in0.0 mm 0.00 in0.0 mm 0.24 in6.1 mm
11:35 AM 33.9°F1.1°C 29.7°F-1.3°C 84% 9.0 mph WSW14.5 kmh WSW 15.0 mph24.1 kmh 29.47 in998.0 mb 0.00 in0.0 mm 0.00 in0.0 mm 0.24 in6.1 mm
11:40 AM 34.0°F1.1°C 29.3°F-1.5°C 83% Calm Calm -- 29.48 in998.3 mb 0.00 in0.0 mm 0.00 in0.0 mm 0.24 in6.1 mm
11:45 AM 34.0°F1.1°C 29.3°F-1.5°C 83% 7.0 mph SW11.3 kmh SW -- 29.48 in998.3 mb 0.00 in0.0 mm 0.00 in0.0 mm 0.24 in6.1 mm
11:50 AM 33.5°F0.8°C 29.1°F-1.6°C 84% 6.0 mph WSW9.7 kmh WSW -- 29.48 in998.3 mb 0.00 in0.0 mm 0.00 in0.0 mm 0.24 in6.1 mm
11:55 AM 33.3°F0.7°C 29.3°F-1.5°C 85% 5.0 mph N8.0 kmh N -- 29.48 in998.3 mb 0.00 in0.0 mm 0.00 in0.0 mm 0.24 in6.1 mm
12:00 PM 33.3°F0.7°C 29.3°F-1.5°C 85% 3.0 mph WSW4.8 kmh WSW 10.0 mph16.1 kmh 29.48 in998.3 mb 0.00 in0.0 mm 0.00 in0.0 mm 0.24 in6.1 mm
12:05 PM 33.4°F0.8°C 29.1°F-1.6°C 84% 7.0 mph W11.3 kmh W -- 29.48 in998.3 mb 0.00 in0.0 mm 0.00 in0.0 mm 0.24 in6.1 mm
12:10 PM 33.5°F0.8°C 29.1°F-1.6°C 84% 5.0 mph WNW8.0 kmh WNW -- 29.49 in998.6 mb 0.00 in0.0 mm 0.00 in0.0 mm 0.24 in6.1 mm
12:15 PM 33.5°F0.8°C 29.5°F-1.4°C 85% 2.0 mph N3.2 kmh N -- 29.48 in998.3 mb 0.00 in0.0 mm 0.00 in0.0 mm 0.24 in6.1 mm
12:20 PM 33.3°F0.7°C 29.5°F-1.4°C 86% 4.0 mph WNW6.4 kmh WNW -- 29.49 in998.6 mb 0.00 in0.0 mm 0.00 in0.0 mm 0.24 in6.1 mm
12:25 PM 33.1°F0.6°C 29.7°F-1.3°C 87% 5.0 mph W8.0 kmh W 11.0 mph17.7 kmh 29.49 in998.6 mb 0.00 in0.0 mm 0.00 in0.0 mm 0.24 in6.1 mm
12:30 PM 33.0°F0.6°C 29.8°F-1.2°C 88% 4.0 mph SE6.4 kmh SE -- 29.50 in999.0 mb 0.00 in0.0 mm 0.00 in0.0 mm 0.24 in6.1 mm
12:35 PM 32.9°F0.5°C 29.7°F-1.3°C 88% 5.0 mph WSW8.0 kmh WSW -- 29.50 in999.0 mb 0.00 in0.0 mm 0.00 in0.0 mm 0.24 in6.1 mm
12:40 PM 33.2°F0.7°C 29.8°F-1.2°C 87% 2.0 mph N3.2 kmh N -- 29.50 in999.0 mb 0.00 in0.0 mm 0.00 in0.0 mm 0.24 in6.1 mm
12:45 PM 33.4°F0.8°C 30.0°F-1.1°C 87% 6.0 mph NW9.7 kmh NW -- 29.50 in999.0 mb 0.00 in0.0 mm 0.00 in0.0 mm 0.24 in6.1 mm
12:50 PM 33.7°F0.9°C 30.2°F-1.0°C 87% 10.0 mph WSW16.1 kmh WSW 19.0 mph30.6 kmh 29.50 in999.0 mb 0.00 in0.0 mm 0.00 in0.0 mm 0.24 in6.1 mm
12:55 PM 33.6°F0.9°C 30.2°F-1.0°C 87% 12.0 mph W19.3 kmh W -- 29.50 in999.0 mb 0.00 in0.0 mm 0.00 in0.0 mm 0.24 in6.1 mm
01:00 PM 33.5°F0.8°C 30.0°F-1.1°C 87% 1.0 mph WSW1.6 kmh WSW -- 29.50 in999.0 mb 0.00 in0.0 mm 0.00 in0.0 mm 0.24 in6.1 mm
01:05 PM 33.6°F0.9°C 30.2°F-1.0°C 87% 10.0 mph WSW16.1 kmh WSW -- 29.50 in999.0 mb 0.00 in0.0 mm 0.00 in0.0 mm 0.24 in6.1 mm
01:10 PM 34.0°F1.1°C 29.7°F-1.3°C 84% 2.0 mph SSW3.2 kmh SSW -- 29.50 in999.0 mb 0.00 in0.0 mm 0.00 in0.0 mm 0.24 in6.1 mm
01:15 PM 34.2°F1.2°C 29.3°F-1.5°C 82% 1.0 mph SW1.6 kmh SW 16.0 mph25.7 kmh 29.50 in999.0 mb 0.00 in0.0 mm 0.00 in0.0 mm 0.24 in6.1 mm
01:20 PM 34.4°F1.3°C 28.8°F-1.8°C 80% 9.0 mph W14.5 kmh W -- 29.50 in999.0 mb 0.00 in0.0 mm 0.00 in0.0 mm 0.24 in6.1 mm
01:25 PM 34.5°F1.4°C 28.8°F-1.8°C 79% 1.0 mph WNW1.6 kmh WNW -- 29.51 in999.3 mb 0.00 in0.0 mm 0.00 in0.0 mm 0.24 in6.1 mm
01:30 PM 34.5°F1.4°C 28.4°F-2.0°C 78% 2.0 mph W3.2 kmh W -- 29.51 in999.3 mb 0.00 in0.0 mm 0.00 in0.0 mm 0.24 in6.1 mm
01:35 PM 34.6°F1.4°C 27.7°F-2.4°C 76% 5.0 mph E8.0 kmh E -- 29.51 in999.3 mb 0.00 in0.0 mm 0.00 in0.0 mm 0.24 in6.1 mm
01:40 PM 34.9°F1.6°C 27.9°F-2.3°C 75% 8.0 mph NW12.9 kmh NW 11.0 mph17.7 kmh 29.51 in999.3 mb 0.00 in0.0 mm 0.00 in0.0 mm 0.24 in6.1 mm
01:45 PM 35.6°F2.0°C 27.9°F-2.3°C 73% 5.0 mph NW8.0 kmh NW -- 29.52 in999.7 mb 0.00 in0.0 mm 0.00 in0.0 mm 0.24 in6.1 mm
01:50 PM 35.5°F1.9°C 27.7°F-2.4°C 73% Calm Calm -- 29.52 in999.7 mb 0.00 in0.0 mm 0.00 in0.0 mm 0.24 in6.1 mm
01:55 PM 35.3°F1.8°C 27.5°F-2.5°C 73% 1.0 mph NW1.6 kmh NW -- 29.52 in999.7 mb 0.00 in0.0 mm 0.00 in0.0 mm 0.24 in6.1 mm
02:00 PM 35.1°F1.7°C 27.3°F-2.6°C 73% 4.0 mph W6.4 kmh W -- 29.52 in999.7 mb 0.00 in0.0 mm 0.00 in0.0 mm 0.24 in6.1 mm
02:05 PM 34.9°F1.6°C 27.1°F-2.7°C 73% 2.0 mph ESE3.2 kmh ESE 12.0 mph19.3 kmh 29.52 in999.7 mb 0.00 in0.0 mm 0.00 in0.0 mm 0.24 in6.1 mm
02:10 PM 34.9°F1.6°C 27.1°F-2.7°C 73% 2.0 mph SW3.2 kmh SW -- 29.52 in999.7 mb 0.00 in0.0 mm 0.00 in0.0 mm 0.24 in6.1 mm
02:15 PM 34.9°F1.6°C 27.1°F-2.7°C 73% 2.0 mph WNW3.2 kmh WNW -- 29.52 in999.7 mb 0.00 in0.0 mm 0.00 in0.0 mm 0.24 in6.1 mm
02:20 PM 34.8°F1.6°C 27.5°F-2.5°C 74% 2.0 mph WNW3.2 kmh WNW -- 29.53 in1000.0 mb 0.00 in0.0 mm 0.00 in0.0 mm 0.24 in6.1 mm
02:25 PM 34.7°F1.5°C 27.3°F-2.6°C 74% 2.0 mph WSW3.2 kmh WSW -- 29.52 in999.7 mb 0.00 in0.0 mm 0.00 in0.0 mm 0.24 in6.1 mm
02:30 PM 34.7°F1.5°C 27.3°F-2.6°C 74% 5.0 mph WSW8.0 kmh WSW 12.0 mph19.3 kmh 29.52 in999.7 mb 0.00 in0.0 mm 0.00 in0.0 mm 0.24 in6.1 mm
02:35 PM 34.6°F1.4°C 26.8°F-2.9°C 73% 9.0 mph WSW14.5 kmh WSW -- 29.52 in999.7 mb 0.00 in0.0 mm 0.00 in0.0 mm 0.24 in6.1 mm
02:40 PM 34.6°F1.4°C 26.4°F-3.1°C 72% 6.0 mph W9.7 kmh W -- 29.53 in1000.0 mb 0.00 in0.0 mm 0.00 in0.0 mm 0.24 in6.1 mm
02:45 PM 34.6°F1.4°C 26.4°F-3.1°C 72% 1.0 mph SW1.6 kmh SW -- 29.52 in999.7 mb 0.00 in0.0 mm 0.00 in0.0 mm 0.24 in6.1 mm
02:50 PM 34.6°F1.4°C 26.8°F-2.9°C 73% 3.0 mph W4.8 kmh W -- 29.52 in999.7 mb 0.00 in0.0 mm 0.00 in0.0 mm 0.24 in6.1 mm
02:55 PM 34.7°F1.5°C 27.0°F-2.8°C 73% 4.0 mph WSW6.4 kmh WSW 9.0 mph14.5 kmh 29.53 in1000.0 mb 0.00 in0.0 mm 0.00 in0.0 mm 0.24 in6.1 mm
03:00 PM 35.0°F1.7°C 27.0°F-2.8°C 72% 6.0 mph NE9.7 kmh NE -- 29.53 in1000.0 mb 0.00 in0.0 mm 0.00 in0.0 mm 0.24 in6.1 mm
03:05 PM 35.0°F1.7°C 27.3°F-2.6°C 73% 6.0 mph WSW9.7 kmh WSW -- 29.54 in1000.3 mb 0.00 in0.0 mm 0.00 in0.0 mm 0.24 in6.1 mm
03:10 PM 35.2°F1.8°C 27.5°F-2.5°C 73% 6.0 mph NNW9.7 kmh NNW -- 29.54 in1000.3 mb 0.00 in0.0 mm 0.00 in0.0 mm 0.24 in6.1 mm
03:15 PM 35.2°F1.8°C 27.9°F-2.3°C 74% 2.0 mph WSW3.2 kmh WSW -- 29.54 in1000.3 mb 0.00 in0.0 mm 0.00 in0.0 mm 0.24 in6.1 mm
03:20 PM 34.9°F1.6°C 27.5°F-2.5°C 74% 8.0 mph W12.9 kmh W 15.0 mph24.1 kmh 29.54 in1000.3 mb 0.00 in0.0 mm 0.00 in0.0 mm 0.24 in6.1 mm
03:25 PM 34.7°F1.5°C 27.7°F-2.4°C 75% 7.0 mph WSW11.3 kmh WSW -- 29.54 in1000.3 mb 0.00 in0.0 mm 0.00 in0.0 mm 0.24 in6.1 mm
03:30 PM 34.6°F1.4°C 27.7°F-2.4°C 76% 9.0 mph WNW14.5 kmh WNW -- 29.55 in1000.7 mb 0.00 in0.0 mm 0.00 in0.0 mm 0.24 in6.1 mm
03:35 PM 34.5°F1.4°C 28.0°F-2.2°C 77% 7.0 mph SW11.3 kmh SW -- 29.55 in1000.7 mb 0.00 in0.0 mm 0.00 in0.0 mm 0.24 in6.1 mm
03:40 PM 34.1°F1.2°C 28.4°F-2.0°C 79% 6.0 mph NNW9.7 kmh NNW -- 29.55 in1000.7 mb 0.00 in0.0 mm 0.00 in0.0 mm 0.24 in6.1 mm
03:45 PM 34.0°F1.1°C 28.2°F-2.1°C 79% 2.0 mph W3.2 kmh W 13.0 mph20.9 kmh 29.55 in1000.7 mb 0.00 in0.0 mm 0.00 in0.0 mm 0.24 in6.1 mm
03:50 PM 33.9°F1.1°C 28.4°F-2.0°C 80% 3.0 mph WNW4.8 kmh WNW -- 29.55 in1000.7 mb 0.00 in0.0 mm 0.00 in0.0 mm 0.24 in6.1 mm
03:55 PM 33.6°F0.9°C 28.4°F-2.0°C 81% 4.0 mph NW6.4 kmh NW -- 29.55 in1000.7 mb 0.00 in0.0 mm 0.00 in0.0 mm 0.24 in6.1 mm
04:00 PM 33.7°F0.9°C 28.9°F-1.7°C 83% 4.0 mph SW6.4 kmh SW -- 29.55 in1000.7 mb 0.00 in0.0 mm 0.00 in0.0 mm 0.24 in6.1 mm
04:05 PM 33.9°F1.1°C 29.3°F-1.5°C 83% 6.0 mph SSE9.7 kmh SSE -- 29.55 in1000.7 mb 0.00 in0.0 mm 0.00 in0.0 mm 0.24 in6.1 mm
04:10 PM 34.1°F1.2°C 28.9°F-1.7°C 81% 8.0 mph N12.9 kmh N 18.0 mph29.0 kmh 29.56 in1001.0 mb 0.00 in0.0 mm 0.00 in0.0 mm 0.24 in6.1 mm
04:15 PM 34.1°F1.2°C 29.3°F-1.5°C 82% Calm Calm -- 29.55 in1000.7 mb 0.00 in0.0 mm 0.00 in0.0 mm 0.24 in6.1 mm
04:20 PM 33.9°F1.1°C 29.1°F-1.6°C 82% 2.0 mph NW3.2 kmh NW -- 29.56 in1001.0 mb 0.00 in0.0 mm 0.00 in0.0 mm 0.24 in6.1 mm
04:25 PM 34.0°F1.1°C 28.8°F-1.8°C 81% 6.0 mph WSW9.7 kmh WSW -- 29.56 in1001.0 mb 0.00 in0.0 mm 0.00 in0.0 mm 0.24 in6.1 mm
04:30 PM 34.2°F1.2°C 28.6°F-1.9°C 80% 4.0 mph W6.4 kmh W -- 29.56 in1001.0 mb 0.00 in0.0 mm 0.00 in0.0 mm 0.24 in6.1 mm
04:35 PM 34.3°F1.3°C 29.1°F-1.6°C 81% 2.0 mph WNW3.2 kmh WNW 19.0 mph30.6 kmh 29.56 in1001.0 mb 0.00 in0.0 mm 0.00 in0.0 mm 0.24 in6.1 mm
04:40 PM 34.2°F1.2°C 28.9°F-1.7°C 81% 3.0 mph NNE4.8 kmh NNE -- 29.56 in1001.0 mb 0.00 in0.0 mm 0.00 in0.0 mm 0.24 in6.1 mm
04:45 PM 34.1°F1.2°C 29.3°F-1.5°C 82% 2.0 mph W3.2 kmh W -- 29.56 in1001.0 mb 0.00 in0.0 mm 0.00 in0.0 mm 0.24 in6.1 mm
04:50 PM 34.1°F1.2°C 29.3°F-1.5°C 82% 5.0 mph ENE8.0 kmh ENE -- 29.56 in1001.0 mb 0.00 in0.0 mm 0.00 in0.0 mm 0.24 in6.1 mm
04:55 PM 34.1°F1.2°C 28.6°F-1.9°C 80% 2.0 mph NW3.2 kmh NW -- 29.57 in1001.4 mb 0.00 in0.0 mm 0.00 in0.0 mm 0.24 in6.1 mm
05:00 PM 34.4°F1.3°C 28.6°F-1.9°C 79% 12.0 mph W19.3 kmh W 15.0 mph24.1 kmh 29.56 in1001.0 mb 0.00 in0.0 mm 0.00 in0.0 mm 0.24 in6.1 mm
05:05 PM 34.8°F1.6°C 28.8°F-1.8°C 78% 3.0 mph W4.8 kmh W -- 29.57 in1001.4 mb 0.00 in0.0 mm 0.00 in0.0 mm 0.24 in6.1 mm
05:10 PM 34.8°F1.6°C 28.4°F-2.0°C 77% 6.0 mph SW9.7 kmh SW -- 29.56 in1001.0 mb 0.00 in0.0 mm 0.00 in0.0 mm 0.24 in6.1 mm
05:15 PM 34.7°F1.5°C 28.6°F-1.9°C 78% 2.0 mph WSW3.2 kmh WSW -- 29.57 in1001.4 mb 0.00 in0.0 mm 0.00 in0.0 mm 0.24 in6.1 mm
05:20 PM 34.1°F1.2°C 28.9°F-1.7°C 81% 6.0 mph NE9.7 kmh NE -- 29.57 in1001.4 mb 0.00 in0.0 mm 0.00 in0.0 mm 0.24 in6.1 mm
05:25 PM 33.7°F0.9°C 28.9°F-1.7°C 83% 7.0 mph WSW11.3 kmh WSW 16.0 mph25.7 kmh 29.57 in1001.4 mb 0.00 in0.0 mm 0.00 in0.0 mm 0.24 in6.1 mm
05:30 PM 33.5°F0.8°C 28.8°F-1.8°C 83% 5.0 mph ENE8.0 kmh ENE -- 29.57 in1001.4 mb 0.00 in0.0 mm 0.00 in0.0 mm 0.24 in6.1 mm
05:35 PM 33.8°F1.0°C 28.9°F-1.7°C 82% 2.0 mph W3.2 kmh W -- 29.57 in1001.4 mb 0.00 in0.0 mm 0.00 in0.0 mm 0.24 in6.1 mm
05:40 PM 33.9°F1.1°C 29.1°F-1.6°C 82% 3.0 mph NNE4.8 kmh NNE -- 29.57 in1001.4 mb 0.00 in0.0 mm 0.00 in0.0 mm 0.24 in6.1 mm
05:45 PM 34.1°F1.2°C 28.6°F-1.9°C 80% Calm Calm -- 29.57 in1001.4 mb 0.00 in0.0 mm 0.00 in0.0 mm 0.24 in6.1 mm
05:50 PM 34.5°F1.4°C 28.4°F-2.0°C 78% 3.0 mph WSW4.8 kmh WSW 15.0 mph24.1 kmh 29.57 in1001.4 mb 0.00 in0.0 mm 0.00 in0.0 mm 0.24 in6.1 mm
05:55 PM 34.7°F1.5°C 28.2°F-2.1°C 77% 4.0 mph WSW6.4 kmh WSW -- 29.57 in1001.4 mb 0.00 in0.0 mm 0.00 in0.0 mm 0.24 in6.1 mm
06:00 PM 34.8°F1.6°C 27.9°F-2.3°C 75% 24.0 mph SW38.6 kmh SW -- 29.57 in1001.4 mb 0.00 in0.0 mm 0.00 in0.0 mm 0.24 in6.1 mm
06:05 PM 35.2°F1.8°C 27.5°F-2.5°C 73% 2.0 mph WNW3.2 kmh WNW -- 29.58 in1001.7 mb 0.00 in0.0 mm 0.00 in0.0 mm 0.24 in6.1 mm
06:10 PM 35.3°F1.8°C 27.5°F-2.5°C 73% 6.0 mph SE9.7 kmh SE -- 29.58 in1001.7 mb 0.00 in0.0 mm 0.00 in0.0 mm 0.24 in6.1 mm
06:15 PM 35.3°F1.8°C 27.5°F-2.5°C 73% Calm Calm 14.0 mph22.5 kmh 29.57 in1001.4 mb 0.00 in0.0 mm 0.00 in0.0 mm 0.24 in6.1 mm
06:20 PM 35.2°F1.8°C 27.5°F-2.5°C 73% Calm Calm -- 29.58 in1001.7 mb 0.00 in0.0 mm 0.00 in0.0 mm 0.24 in6.1 mm
06:25 PM 35.0°F1.7°C 27.9°F-2.3°C 75% 5.0 mph WSW8.0 kmh WSW -- 29.59 in1002.0 mb 0.00 in0.0 mm 0.00 in0.0 mm 0.24 in6.1 mm
06:30 PM 33.6°F0.9°C 28.4°F-2.0°C 81% 7.0 mph W11.3 kmh W -- 29.59 in1002.0 mb 0.00 in0.0 mm 0.00 in0.0 mm 0.24 in6.1 mm
06:35 PM 32.8°F0.4°C 28.8°F-1.8°C 85% 3.0 mph SW4.8 kmh SW -- 29.59 in1002.0 mb 0.00 in0.0 mm 0.00 in0.0 mm 0.24 in6.1 mm
06:40 PM 32.4°F0.2°C 28.9°F-1.7°C 87% 1.0 mph S1.6 kmh S 13.0 mph20.9 kmh 29.58 in1001.7 mb 0.00 in0.0 mm 0.00 in0.0 mm 0.24 in6.1 mm
06:45 PM 32.3°F0.2°C 29.3°F-1.5°C 88% 1.0 mph W1.6 kmh W -- 29.58 in1001.7 mb 0.00 in0.0 mm 0.00 in0.0 mm 0.24 in6.1 mm
06:50 PM 32.3°F0.2°C 29.3°F-1.5°C 88% Calm Calm -- 29.59 in1002.0 mb 0.00 in0.0 mm 0.00 in0.0 mm 0.24 in6.1 mm
06:55 PM 32.3°F0.2°C 29.3°F-1.5°C 88% 1.0 mph NW1.6 kmh NW -- 29.59 in1002.0 mb 0.00 in0.0 mm 0.00 in0.0 mm 0.24 in6.1 mm
07:00 PM 32.5°F0.3°C 29.7°F-1.3°C 89% 1.0 mph W1.6 kmh W -- 29.59 in1002.0 mb 0.00 in0.0 mm 0.00 in0.0 mm 0.24 in6.1 mm
07:05 PM 32.5°F0.3°C 29.3°F-1.5°C 88% Calm Calm 8.0 mph12.9 kmh 29.59 in1002.0 mb 0.00 in0.0 mm 0.00 in0.0 mm 0.24 in6.1 mm
07:10 PM 32.7°F0.4°C 29.5°F-1.4°C 88% 6.0 mph WNW9.7 kmh WNW -- 29.59 in1002.0 mb 0.00 in0.0 mm 0.00 in0.0 mm 0.24 in6.1 mm
07:15 PM 33.1°F0.6°C 29.3°F-1.5°C 86% 5.0 mph NW8.0 kmh NW -- 29.59 in1002.0 mb 0.00 in0.0 mm 0.00 in0.0 mm 0.24 in6.1 mm
07:20 PM 33.9°F1.1°C 28.4°F-2.0°C 80% 7.0 mph NW11.3 kmh NW -- 29.59 in1002.0 mb 0.00 in0.0 mm 0.00 in0.0 mm 0.24 in6.1 mm
07:25 PM 34.6°F1.4°C 27.7°F-2.4°C 76% 3.0 mph NW4.8 kmh NW -- 29.59 in1002.0 mb 0.00 in0.0 mm 0.00 in0.0 mm 0.24 in6.1 mm
07:30 PM 34.8°F1.6°C 27.5°F-2.5°C 74% 3.0 mph WSW4.8 kmh WSW 10.0 mph16.1 kmh 29.59 in1002.0 mb 0.00 in0.0 mm 0.00 in0.0 mm 0.24 in6.1 mm
07:35 PM 34.8°F1.6°C 27.1°F-2.7°C 73% 3.0 mph WSW4.8 kmh WSW -- 29.59 in1002.0 mb 0.00 in0.0 mm 0.00 in0.0 mm 0.24 in6.1 mm
07:40 PM 35.1°F1.7°C 26.6°F-3.0°C 71% 12.0 mph W19.3 kmh W -- 29.59 in1002.0 mb 0.00 in0.0 mm 0.00 in0.0 mm 0.24 in6.1 mm
07:45 PM 35.2°F1.8°C 26.8°F-2.9°C 71% 5.0 mph NW8.0 kmh NW -- 29.59 in1002.0 mb 0.00 in0.0 mm 0.00 in0.0 mm 0.24 in6.1 mm
07:50 PM 35.2°F1.8°C 26.4°F-3.1°C 70% Calm Calm -- 29.59 in1002.0 mb 0.00 in0.0 mm 0.00 in0.0 mm 0.24 in6.1 mm
07:55 PM 35.0°F1.7°C 26.2°F-3.2°C 70% 6.0 mph SW9.7 kmh SW 8.0 mph12.9 kmh 29.59 in1002.0 mb 0.00 in0.0 mm 0.00 in0.0 mm 0.24 in6.1 mm
08:00 PM 34.6°F1.4°C 26.1°F-3.3°C 71% 7.0 mph W11.3 kmh W -- 29.60 in1002.4 mb 0.00 in0.0 mm 0.00 in0.0 mm 0.24 in6.1 mm
08:05 PM 33.6°F0.9°C 26.6°F-3.0°C 75% 5.0 mph W8.0 kmh W -- 29.60 in1002.4 mb 0.00 in0.0 mm 0.00 in0.0 mm 0.24 in6.1 mm
08:10 PM 33.0°F0.6°C 27.0°F-2.8°C 78% 4.0 mph W6.4 kmh W -- 29.60 in1002.4 mb 0.00 in0.0 mm 0.00 in0.0 mm 0.24 in6.1 mm
08:15 PM 32.9°F0.5°C 27.1°F-2.7°C 79% 1.0 mph S1.6 kmh S -- 29.60 in1002.4 mb 0.00 in0.0 mm 0.00 in0.0 mm 0.24 in6.1 mm
08:20 PM 33.2°F0.7°C 27.9°F-2.3°C 80% 2.0 mph N3.2 kmh N 9.0 mph14.5 kmh 29.60 in1002.4 mb 0.00 in0.0 mm 0.00 in0.0 mm 0.24 in6.1 mm
08:25 PM 33.2°F0.7°C 27.9°F-2.3°C 80% 3.0 mph N4.8 kmh N -- 29.60 in1002.4 mb 0.00 in0.0 mm 0.00 in0.0 mm 0.24 in6.1 mm
08:30 PM 33.3°F0.7°C 27.9°F-2.3°C 80% 1.0 mph NNW1.6 kmh NNW -- 29.60 in1002.4 mb 0.00 in0.0 mm 0.00 in0.0 mm 0.24 in6.1 mm
08:35 PM 33.2°F0.7°C 27.9°F-2.3°C 80% Calm Calm -- 29.59 in1002.0 mb 0.00 in0.0 mm 0.00 in0.0 mm 0.24 in6.1 mm
08:40 PM 33.2°F0.7°C 27.5°F-2.5°C 79% Calm Calm -- 29.59 in1002.0 mb 0.00 in0.0 mm 0.00 in0.0 mm 0.24 in6.1 mm
08:45 PM 33.2°F0.7°C 27.5°F-2.5°C 79% Calm Calm 1.0 mph1.6 kmh 29.59 in1002.0 mb 0.00 in0.0 mm 0.00 in0.0 mm 0.24 in6.1 mm
08:50 PM 33.1°F0.6°C 27.3°F-2.6°C 79% Calm Calm -- 29.59 in1002.0 mb 0.00 in0.0 mm 0.00 in0.0 mm 0.24 in6.1 mm
08:55 PM 33.1°F0.6°C 27.0°F-2.8°C 78% Calm Calm -- 29.59 in1002.0 mb 0.00 in0.0 mm 0.00 in0.0 mm 0.24 in6.1 mm
09:00 PM 32.8°F0.4°C 27.0°F-2.8°C 79% Calm Calm -- 29.59 in1002.0 mb 0.00 in0.0 mm 0.00 in0.0 mm 0.24 in6.1 mm
09:05 PM 32.9°F0.5°C 26.8°F-2.9°C 78% 4.0 mph NW6.4 kmh NW -- 29.59 in1002.0 mb 0.00 in0.0 mm 0.00 in0.0 mm 0.24 in6.1 mm
09:10 PM 33.2°F0.7°C 27.1°F-2.7°C 78% 5.0 mph SSW8.0 kmh SSW 21.0 mph33.8 kmh 29.61 in1002.7 mb 0.00 in0.0 mm 0.00 in0.0 mm 0.24 in6.1 mm
09:15 PM 32.3°F0.2°C 27.5°F-2.5°C 82% 2.0 mph WNW3.2 kmh WNW -- 29.60 in1002.4 mb 0.00 in0.0 mm 0.00 in0.0 mm 0.24 in6.1 mm
09:20 PM 31.9°F-0.1°C 27.3°F-2.6°C 83% 4.0 mph SW6.4 kmh SW -- 29.60 in1002.4 mb 0.00 in0.0 mm 0.00 in0.0 mm 0.24 in6.1 mm
09:25 PM 31.7°F-0.2°C 27.3°F-2.6°C 84% 2.0 mph SSE3.2 kmh SSE -- 29.60 in1002.4 mb 0.00 in0.0 mm 0.00 in0.0 mm 0.24 in6.1 mm
09:30 PM 31.9°F-0.1°C 27.5°F-2.5°C 84% Calm Calm -- 29.60 in1002.4 mb 0.00 in0.0 mm 0.00 in0.0 mm 0.24 in6.1 mm
09:35 PM 32.3°F0.2°C 27.9°F-2.3°C 83% 2.0 mph WSW3.2 kmh WSW 7.0 mph11.3 kmh 29.60 in1002.4 mb 0.00 in0.0 mm 0.00 in0.0 mm 0.24 in6.1 mm
09:40 PM 32.6°F0.3°C 27.3°F-2.6°C 81% 4.0 mph WNW6.4 kmh WNW -- 29.60 in1002.4 mb 0.00 in0.0 mm 0.00 in0.0 mm 0.24 in6.1 mm
09:45 PM 32.9°F0.5°C 27.5°F-2.5°C 80% 3.0 mph WNW4.8 kmh WNW -- 29.60 in1002.4 mb 0.00 in0.0 mm 0.00 in0.0 mm 0.24 in6.1 mm
09:50 PM 32.9°F0.5°C 27.1°F-2.7°C 79% Calm Calm -- 29.60 in1002.4 mb 0.00 in0.0 mm 0.00 in0.0 mm 0.24 in6.1 mm
09:55 PM 32.6°F0.3°C 26.8°F-2.9°C 79% Calm Calm -- 29.60 in1002.4 mb 0.00 in0.0 mm 0.00 in0.0 mm 0.24 in6.1 mm
10:00 PM 32.3°F0.2°C 26.6°F-3.0°C 79% 1.0 mph WNW1.6 kmh WNW 2.0 mph3.2 kmh 29.60 in1002.4 mb 0.00 in0.0 mm 0.00 in0.0 mm 0.24 in6.1 mm
10:05 PM 32.0°F0.0°C 26.6°F-3.0°C 80% 1.0 mph SW1.6 kmh SW -- 29.60 in1002.4 mb 0.00 in0.0 mm 0.00 in0.0 mm 0.24 in6.1 mm
10:10 PM 32.5°F0.3°C 26.4°F-3.1°C 78% 4.0 mph W6.4 kmh W -- 29.60 in1002.4 mb 0.00 in0.0 mm 0.00 in0.0 mm 0.24 in6.1 mm
10:15 PM 33.2°F0.7°C 26.6°F-3.0°C 76% Calm Calm -- 29.60 in1002.4 mb 0.00 in0.0 mm 0.00 in0.0 mm 0.24 in6.1 mm
10:20 PM 33.1°F0.6°C 26.4°F-3.1°C 76% 2.0 mph WSW3.2 kmh WSW -- 29.60 in1002.4 mb 0.00 in0.0 mm 0.00 in0.0 mm 0.24 in6.1 mm
10:25 PM 33.1°F0.6°C 26.4°F-3.1°C 76% Calm Calm 4.0 mph6.4 kmh 29.60 in1002.4 mb 0.00 in0.0 mm 0.00 in0.0 mm 0.24 in6.1 mm
10:30 PM 33.0°F0.6°C 26.1°F-3.3°C 75% Calm Calm -- 29.60 in1002.4 mb 0.00 in0.0 mm 0.00 in0.0 mm 0.24 in6.1 mm
10:35 PM 33.0°F0.6°C 26.1°F-3.3°C 75% 6.0 mph WSW9.7 kmh WSW -- 29.60 in1002.4 mb 0.00 in0.0 mm 0.00 in0.0 mm 0.24 in6.1 mm
10:40 PM 33.0°F0.6°C 26.1°F-3.3°C 75% 1.0 mph SW1.6 kmh SW -- 29.60 in1002.4 mb 0.00 in0.0 mm 0.00 in0.0 mm 0.24 in6.1 mm
10:45 PM 32.8°F0.4°C 25.7°F-3.5°C 75% 2.0 mph SSW3.2 kmh SSW -- 29.60 in1002.4 mb 0.00 in0.0 mm 0.00 in0.0 mm 0.24 in6.1 mm
10:50 PM 32.5°F0.3°C 25.9°F-3.4°C 76% 4.0 mph SW6.4 kmh SW 5.0 mph8.0 kmh 29.60 in1002.4 mb 0.00 in0.0 mm 0.00 in0.0 mm 0.24 in6.1 mm
10:55 PM 32.4°F0.2°C 25.7°F-3.5°C 76% 3.0 mph SW4.8 kmh SW -- 29.60 in1002.4 mb 0.00 in0.0 mm 0.00 in0.0 mm 0.24 in6.1 mm
11:00 PM 32.3°F0.2°C 26.1°F-3.3°C 77% 2.0 mph SW3.2 kmh SW -- 29.60 in1002.4 mb 0.00 in0.0 mm 0.00 in0.0 mm 0.24 in6.1 mm
11:05 PM 32.0°F0.0°C 25.7°F-3.5°C 77% 2.0 mph SW3.2 kmh SW -- 29.60 in1002.4 mb 0.00 in0.0 mm 0.00 in0.0 mm 0.24 in6.1 mm
11:10 PM 31.8°F-0.1°C 25.5°F-3.6°C 77% 1.0 mph SW1.6 kmh SW -- 29.59 in1002.0 mb 0.00 in0.0 mm 0.00 in0.0 mm 0.24 in6.1 mm
11:15 PM 32.1°F0.1°C 25.9°F-3.4°C 77% 1.0 mph SW1.6 kmh SW 3.0 mph4.8 kmh 29.60 in1002.4 mb 0.00 in0.0 mm 0.00 in0.0 mm 0.24 in6.1 mm
11:20 PM 32.1°F0.1°C 25.9°F-3.4°C 77% 4.0 mph SW6.4 kmh SW -- 29.60 in1002.4 mb 0.00 in0.0 mm 0.00 in0.0 mm 0.24 in6.1 mm
11:25 PM 32.2°F0.1°C 25.9°F-3.4°C 77% 9.0 mph WSW14.5 kmh WSW -- 29.60 in1002.4 mb 0.00 in0.0 mm 0.00 in0.0 mm 0.24 in6.1 mm
11:30 PM 32.9°F0.5°C 25.9°F-3.4°C 75% 10.0 mph SSW16.1 kmh SSW -- 29.60 in1002.4 mb 0.00 in0.0 mm 0.00 in0.0 mm 0.24 in6.1 mm
11:35 PM 33.1°F0.6°C 26.4°F-3.1°C 76% Calm Calm -- 29.60 in1002.4 mb 0.00 in0.0 mm 0.00 in0.0 mm 0.24 in6.1 mm
11:40 PM 33.0°F0.6°C 26.6°F-3.0°C 77% 2.0 mph SW3.2 kmh SW 11.0 mph17.7 kmh 29.60 in1002.4 mb 0.00 in0.0 mm 0.00 in0.0 mm 0.24 in6.1 mm
11:45 PM 32.6°F0.3°C 26.4°F-3.1°C 78% 5.0 mph SW8.0 kmh SW -- 29.60 in1002.4 mb 0.00 in0.0 mm 0.00 in0.0 mm 0.24 in6.1 mm
11:50 PM 32.4°F0.2°C 26.6°F-3.0°C 79% 5.0 mph SW8.0 kmh SW -- 29.59 in1002.0 mb 0.00 in0.0 mm 0.00 in0.0 mm 0.24 in6.1 mm
11:55 PM 32.1°F0.1°C 26.8°F-2.9°C 80% 4.0 mph SSW6.4 kmh SSW -- 29.59 in1002.0 mb 0.00 in0.0 mm 0.00 in0.0 mm 0.24 in6.1 mm